createdAt,value
2022-10-05T00:01:39.407Z,14.50
2022-10-05T00:04:42.641Z,15.97
2022-10-05T00:07:45.865Z,16.75
2022-10-05T00:10:49.543Z,15.32
2022-10-05T00:13:52.934Z,12.77
2022-10-05T00:16:56.839Z,14.85
2022-10-05T00:20:00.133Z,15.03
2022-10-05T00:23:07.431Z,15.27
2022-10-05T00:26:19.629Z,15.13
2022-10-05T00:29:23.903Z,14.60
2022-10-05T00:32:27.273Z,12.85
2022-10-05T00:35:31.512Z,16.40
2022-10-05T00:38:34.893Z,14.93
2022-10-05T00:41:40.687Z,14.05
2022-10-05T00:44:51.032Z,14.88
2022-10-05T00:47:57.197Z,14.38
2022-10-05T00:51:12.268Z,21.00
2022-10-05T00:54:21.227Z,14.32
2022-10-05T00:57:33.878Z,18.08
2022-10-05T01:00:54.225Z,14.35
2022-10-05T01:04:11.896Z,16.10
2022-10-05T01:07:38.494Z,15.83
2022-10-05T01:10:44.562Z,15.38
2022-10-05T01:14:03.612Z,19.33
2022-10-05T01:17:08.968Z,15.77
2022-10-05T01:20:20.829Z,15.65
2022-10-05T01:23:57.278Z,18.27
2022-10-05T01:27:17.340Z,15.18
2022-10-05T01:30:22.053Z,13.88
2022-10-05T01:33:33.536Z,15.73
2022-10-05T01:37:08.732Z,15.30
2022-10-05T01:40:47.463Z,16.90
2022-10-05T01:43:59.280Z,15.90
2022-10-05T01:47:17.524Z,14.63
2022-10-05T01:50:47.348Z,15.32
2022-10-05T01:54:04.024Z,17.63
2022-10-05T01:57:12.900Z,17.60
2022-10-05T02:00:18.534Z,16.35
2022-10-05T02:03:27.883Z,14.98
2022-10-05T02:06:40.524Z,16.10
2022-10-05T02:10:00.791Z,16.10
2022-10-05T02:13:20.212Z,14.47
2022-10-05T02:16:33.666Z,15.07
2022-10-05T02:19:46.860Z,15.10
2022-10-05T02:23:00.271Z,16.52
2022-10-05T02:26:04.987Z,15.77
2022-10-05T02:29:13.310Z,18.23
2022-10-05T02:32:22.785Z,17.42
2022-10-05T02:35:26.436Z,14.95
2022-10-05T02:38:35.016Z,14.63
2022-10-05T02:41:44.278Z,18.45
2022-10-05T02:45:19.829Z,19.33
2022-10-05T02:48:29.024Z,14.05
2022-10-05T02:51:51.448Z,14.93
2022-10-05T02:55:03.620Z,16.08
2022-10-05T02:58:16.086Z,15.55
2022-10-05T03:01:55.854Z,16.53
2022-10-05T03:05:20.145Z,15.48
2022-10-05T03:08:42.355Z,16.65
2022-10-05T03:12:04.897Z,16.45
2022-10-05T03:15:27.955Z,15.75
2022-10-05T03:19:11.148Z,16.90
2022-10-05T03:22:34.320Z,15.27
2022-10-05T03:26:00.704Z,15.63
2022-10-05T03:29:12.877Z,17.60
2022-10-05T03:32:46.230Z,16.83
2022-10-05T03:36:14.401Z,18.10
2022-10-05T03:39:30.663Z,17.42
2022-10-05T03:42:57.659Z,18.55
2022-10-05T03:46:26.235Z,23.50
2022-10-05T03:49:49.567Z,15.73
2022-10-05T03:53:12.118Z,17.37
2022-10-05T03:56:37.601Z,18.30
2022-10-05T04:00:12.799Z,17.65
2022-10-05T04:03:41.278Z,17.25
2022-10-05T04:06:53.418Z,22.42
2022-10-05T04:09:57.948Z,17.67
2022-10-05T04:13:20.589Z,17.38
2022-10-05T04:16:35.683Z,17.77
2022-10-05T04:20:03.390Z,23.73
2022-10-05T04:23:10.449Z,23.10
2022-10-05T04:26:19.701Z,25.73
2022-10-05T04:29:39.223Z,19.65
2022-10-05T04:32:55.047Z,24.75
2022-10-05T04:36:27.497Z,18.70
2022-10-05T04:40:01.676Z,21.45
2022-10-05T04:43:29.435Z,18.53
2022-10-05T04:46:47.923Z,19.67
2022-10-05T04:50:09.518Z,21.60
2022-10-05T04:53:39.481Z,18.30
2022-10-05T04:56:47.628Z,20.10
2022-10-05T05:00:16.455Z,21.83
2022-10-05T05:03:42.372Z,16.60
2022-10-05T05:07:01.257Z,18.77
2022-10-05T05:10:04.356Z,16.48
2022-10-05T05:13:48.212Z,17.80
2022-10-05T05:17:09.648Z,16.73
2022-10-05T05:20:49.058Z,17.73
2022-10-05T05:24:11.237Z,22.50
2022-10-05T05:27:51.968Z,20.38
2022-10-05T05:31:32.581Z,19.27
2022-10-05T05:34:44.892Z,20.83
2022-10-05T05:38:11.125Z,19.38
2022-10-05T05:41:34.372Z,16.92
2022-10-05T05:44:54.005Z,18.67
2022-10-05T05:48:01.026Z,26.80
2022-10-05T05:51:09.216Z,18.93
2022-10-05T05:54:26.218Z,11.95
2022-10-05T05:58:00.838Z,12.40
2022-10-05T06:01:33.952Z,10.98
2022-10-05T06:05:22.568Z,12.32
2022-10-05T06:08:40.749Z,10.97
2022-10-05T06:12:16.652Z,14.00
2022-10-05T06:15:58.897Z,12.88
2022-10-05T06:19:17.168Z,13.93
2022-10-05T06:22:58.726Z,15.38
2022-10-05T06:26:32.013Z,16.20
2022-10-05T06:30:09.266Z,14.93
2022-10-05T06:33:24.124Z,15.82
2022-10-05T06:37:10.811Z,17.30
2022-10-05T06:40:23.282Z,19.08
2022-10-05T06:43:46.944Z,15.97
2022-10-05T06:47:26.705Z,14.18
2022-10-05T06:50:53.490Z,16.88
2022-10-05T06:54:25.818Z,15.55
2022-10-05T06:58:00.734Z,16.00
2022-10-05T07:01:20.130Z,13.87
2022-10-05T07:04:42.203Z,14.63
2022-10-05T07:07:59.074Z,11.57
2022-10-05T07:11:36.944Z,10.75
2022-10-05T07:15:04.607Z,14.65
2022-10-05T07:18:42.030Z,15.83
2022-10-05T07:22:26.605Z,14.38
2022-10-05T07:25:45.101Z,13.48
2022-10-05T07:28:55.815Z,16.52
2022-10-05T07:32:07.954Z,13.65
2022-10-05T07:35:37.386Z,14.23
2022-10-05T07:38:56.030Z,17.38
2022-10-05T07:42:18.843Z,13.20
2022-10-05T07:45:33.515Z,13.85
2022-10-05T07:48:57.004Z,13.90
2022-10-05T07:52:17.261Z,14.60
2022-10-05T07:55:26.874Z,15.07
2022-10-05T07:58:43.257Z,15.70
2022-10-05T08:01:54.652Z,18.27
2022-10-05T08:05:04.173Z,13.73
2022-10-05T08:08:23.957Z,15.23
2022-10-05T08:12:12.289Z,14.85
2022-10-05T08:15:52.984Z,17.15
2022-10-05T08:19:10.438Z,14.80
2022-10-05T08:22:38.939Z,15.60
2022-10-05T08:26:06.499Z,15.07
2022-10-05T08:29:33.091Z,14.57
2022-10-05T08:33:07.749Z,10.77
2022-10-05T08:36:16.860Z,13.43
2022-10-05T08:39:28.267Z,16.33
2022-10-05T08:42:44.605Z,19.00
2022-10-05T08:46:00.870Z,15.63
2022-10-05T08:49:16.811Z,14.10
2022-10-05T08:53:01.622Z,12.68
2022-10-05T08:56:19.099Z,14.95
2022-10-05T08:59:49.849Z,15.73
2022-10-05T09:03:13.521Z,13.40
2022-10-05T09:06:51.092Z,15.35
2022-10-05T09:10:09.503Z,12.85
2022-10-05T09:13:45.435Z,13.32
2022-10-05T09:17:24.578Z,13.07
2022-10-05T09:20:32.469Z,10.85
2022-10-05T09:23:45.042Z,10.02
2022-10-05T09:26:59.909Z,11.07
2022-10-05T09:30:28.693Z,10.35
2022-10-05T09:34:19.768Z,10.23
2022-10-05T09:37:47.592Z,10.80
2022-10-05T09:41:28.552Z,10.77
2022-10-05T09:45:26.034Z,11.57
2022-10-05T09:48:51.668Z,12.30
2022-10-05T09:52:08.010Z,8.20
2022-10-05T09:55:27.504Z,9.35
2022-10-05T09:59:08.471Z,12.30
2022-10-05T10:02:49.303Z,8.63
2022-10-05T10:06:05.450Z,15.32
2022-10-05T10:09:33.071Z,7.93
2022-10-05T10:12:48.267Z,14.55
2022-10-05T10:16:06.881Z,9.15
2022-10-05T10:19:31.696Z,14.02
2022-10-05T10:23:04.850Z,8.40
2022-10-05T10:26:26.850Z,8.50
2022-10-05T10:29:51.232Z,10.07
2022-10-05T10:33:11.859Z,7.03
2022-10-05T10:36:39.429Z,8.02
2022-10-05T10:40:09.099Z,10.85
2022-10-05T10:43:39.319Z,8.03
2022-10-05T10:47:24.161Z,8.13
2022-10-05T10:50:33.299Z,8.10
2022-10-05T10:53:56.144Z,9.32
2022-10-05T10:57:38.007Z,11.35
2022-10-05T11:01:20.587Z,7.27
2022-10-05T11:04:48.512Z,6.15
2022-10-05T11:08:25.407Z,7.35
2022-10-05T11:11:54.924Z,6.50
2022-10-05T11:15:25.240Z,6.43
2022-10-05T11:19:05.719Z,6.03
2022-10-05T11:22:36.947Z,7.03
2022-10-05T11:25:58.183Z,8.90
2022-10-05T11:29:13.750Z,7.55
2022-10-05T11:32:25.501Z,7.47
2022-10-05T11:35:41.395Z,9.33
2022-10-05T11:39:08.108Z,7.07
2022-10-05T11:43:02.160Z,6.22
2022-10-05T11:46:22.382Z,6.68
2022-10-05T11:49:30.673Z,4.70
2022-10-05T11:52:48.052Z,6.40
2022-10-05T12:00:02.831Z,8.32
2022-10-05T12:04:05.309Z,6.50
2022-10-05T12:07:27.633Z,6.50
2022-10-05T12:10:51.515Z,6.20
2022-10-05T12:14:03.616Z,6.68
2022-10-05T12:17:23.302Z,4.53
2022-10-05T12:20:53.331Z,7.25
2022-10-05T12:24:05.224Z,9.18
2022-10-05T12:27:27.548Z,5.33
2022-10-05T12:30:54.803Z,11.05
2022-10-05T12:34:09.101Z,6.18
2022-10-05T12:37:17.006Z,7.00
2022-10-05T12:40:32.395Z,6.13
2022-10-05T12:43:50.688Z,7.27
2022-10-05T12:47:41.401Z,7.75
2022-10-05T12:50:56.700Z,7.68
2022-10-05T12:54:17.981Z,7.03
2022-10-05T12:57:58.657Z,7.10
2022-10-05T13:01:18.044Z,9.77
2022-10-05T13:04:48.020Z,8.10
2022-10-05T13:08:43.715Z,8.45
2022-10-05T13:11:51.090Z,6.25
2022-10-05T13:15:13.434Z,4.97
2022-10-05T13:18:45.380Z,3.27
2022-10-05T13:22:23.104Z,5.05
2022-10-05T13:25:37.740Z,6.78
2022-10-05T13:28:49.525Z,8.27
2022-10-05T13:32:05.949Z,7.05
2022-10-05T13:35:15.381Z,6.80
2022-10-05T13:38:24.315Z,4.88
2022-10-05T13:41:35.984Z,5.10
2022-10-05T13:44:44.759Z,6.82
2022-10-05T13:48:09.706Z,6.40
2022-10-05T13:51:19.247Z,7.93
2022-10-05T13:54:47.579Z,10.35
2022-10-05T13:58:36.445Z,5.80
2022-10-05T14:01:57.036Z,7.18
2022-10-05T14:05:02.899Z,8.02
2022-10-05T14:08:06.180Z,5.70
2022-10-05T14:11:27.253Z,7.18
2022-10-05T14:14:33.258Z,7.00
2022-10-05T14:17:43.988Z,7.03
2022-10-05T14:21:00.700Z,11.95
2022-10-05T14:24:45.177Z,8.70
2022-10-05T14:28:12.190Z,13.10
2022-10-05T14:31:27.304Z,10.00
2022-10-05T14:34:45.065Z,6.30
2022-10-05T14:38:11.712Z,10.18
2022-10-05T14:41:27.757Z,10.93
2022-10-05T14:47:51.748Z,12.73
2022-10-05T14:51:02.272Z,7.72
2022-10-05T14:54:41.202Z,9.02
2022-10-05T14:58:15.659Z,5.83
2022-10-05T15:01:31.038Z,10.32
2022-10-05T15:04:43.327Z,7.28
2022-10-05T15:07:51.160Z,6.10
2022-10-05T15:11:26.340Z,9.55
2022-10-05T15:14:38.424Z,6.47
2022-10-05T15:17:52.502Z,7.47
2022-10-05T15:21:12.016Z,9.65
2022-10-05T15:24:30.120Z,25.15
2022-10-05T15:28:11.700Z,68.03
2022-10-05T15:31:29.996Z,68.83
2022-10-05T15:34:36.184Z,60.38
2022-10-05T15:37:55.963Z,27.58
2022-10-05T15:41:20.031Z,24.30
2022-10-05T15:44:28.894Z,12.50
2022-10-05T15:48:14.996Z,7.80
2022-10-05T15:51:21.308Z,8.05
2022-10-05T15:54:56.013Z,7.32
2022-10-05T15:58:31.861Z,8.15
2022-10-05T16:01:35.014Z,8.35
2022-10-05T16:05:04.497Z,8.47
2022-10-05T16:08:47.030Z,7.25
2022-10-05T16:12:09.790Z,8.35
2022-10-05T16:15:26.541Z,8.75
2022-10-05T16:18:55.033Z,8.20
2022-10-05T16:22:22.208Z,7.40
2022-10-05T16:25:40.082Z,7.38
2022-10-05T16:29:03.965Z,7.97
2022-10-05T16:32:19.101Z,7.80
2022-10-05T16:35:38.969Z,10.68
2022-10-05T16:39:00.624Z,14.63
2022-10-05T16:42:12.926Z,5.18
2022-10-05T16:45:21.508Z,10.02
2022-10-05T16:48:30.670Z,10.00
2022-10-05T16:51:59.149Z,10.77
2022-10-05T16:55:12.708Z,7.30
2022-10-05T16:58:27.335Z,10.18
2022-10-05T17:02:02.094Z,9.40
2022-10-05T17:05:14.019Z,9.40
2022-10-05T17:08:36.617Z,7.70
2022-10-05T17:12:10.289Z,9.23
2022-10-05T17:15:37.306Z,9.93
2022-10-05T17:18:55.267Z,11.38
2022-10-05T17:22:05.701Z,8.38
2022-10-05T17:25:24.222Z,8.60
2022-10-05T17:28:48.944Z,8.73
2022-10-05T17:32:06.586Z,9.38
2022-10-05T17:35:18.656Z,10.68
2022-10-05T17:38:31.089Z,9.68
2022-10-05T17:41:37.066Z,7.82
2022-10-05T17:44:40.336Z,10.53
2022-10-05T17:48:01.171Z,11.70
2022-10-05T17:51:45.973Z,8.93
2022-10-05T17:55:07.745Z,10.00
2022-10-05T17:58:27.565Z,9.07
2022-10-05T18:01:39.851Z,9.93
2022-10-05T18:04:55.997Z,10.75
2022-10-05T18:08:16.426Z,11.52
2022-10-05T18:11:33.355Z,10.77
2022-10-05T18:14:56.805Z,11.77
2022-10-05T18:18:38.787Z,13.23
2022-10-05T18:22:17.799Z,12.88
2022-10-05T18:25:27.239Z,12.18
2022-10-05T18:28:56.199Z,11.43
2022-10-05T18:32:07.996Z,12.85
2022-10-05T18:35:37.065Z,11.27
2022-10-05T18:39:25.048Z,10.77
2022-10-05T18:42:44.726Z,10.65
2022-10-05T18:46:25.483Z,12.38
2022-10-05T18:49:55.213Z,10.43
2022-10-05T18:53:01.073Z,11.53
2022-10-05T18:56:24.564Z,13.00
2022-10-05T18:59:57.520Z,11.77
2022-10-05T19:03:15.055Z,13.43
2022-10-05T19:06:37.430Z,19.33
2022-10-05T19:10:11.885Z,11.60
2022-10-05T19:13:24.051Z,14.35
2022-10-05T19:16:36.357Z,11.57
2022-10-05T19:20:21.729Z,13.15
2022-10-05T19:23:44.638Z,11.02
2022-10-05T19:27:11.027Z,10.83
2022-10-05T19:30:27.193Z,10.73
2022-10-05T19:33:41.259Z,12.25
2022-10-05T19:36:51.431Z,10.38
2022-10-05T19:40:21.130Z,11.13
2022-10-05T19:43:50.321Z,10.07
2022-10-05T19:47:24.106Z,10.35
2022-10-05T19:50:31.414Z,11.23
2022-10-05T19:53:45.816Z,11.57
2022-10-05T19:56:54.275Z,10.45
2022-10-05T19:59:58.391Z,9.63
2022-10-05T20:03:19.609Z,9.95
2022-10-05T20:06:22.967Z,11.30
2022-10-05T20:09:26.156Z,10.52
2022-10-05T20:12:53.076Z,10.02
2022-10-05T20:16:26.766Z,10.87
2022-10-05T20:19:51.733Z,9.70
2022-10-05T20:23:18.423Z,16.50
2022-10-05T20:27:00.122Z,10.98
2022-10-05T20:30:04.129Z,11.38
2022-10-05T20:33:14.584Z,12.87
2022-10-05T20:36:17.658Z,10.25
2022-10-05T20:39:21.468Z,15.93
2022-10-05T20:42:25.399Z,12.80
2022-10-05T20:45:28.575Z,12.18
2022-10-05T20:48:31.882Z,11.00
2022-10-05T20:51:35.301Z,12.30
2022-10-05T20:54:39.458Z,13.68
2022-10-05T20:57:42.735Z,14.18
2022-10-05T21:01:07.093Z,14.48
2022-10-05T21:04:10.525Z,14.33
2022-10-05T21:07:20.867Z,10.75
2022-10-05T21:10:24.058Z,12.95
2022-10-05T21:13:27.154Z,13.07
2022-10-05T21:16:30.425Z,13.88
2022-10-05T21:19:38.357Z,13.80
2022-10-05T21:22:41.938Z,14.65
2022-10-05T21:25:45.508Z,13.48
2022-10-05T21:28:48.735Z,17.67
2022-10-05T21:31:52.356Z,16.65
2022-10-05T21:34:55.684Z,15.53
2022-10-05T21:37:58.741Z,17.70
2022-10-05T21:41:04.441Z,13.63
2022-10-05T21:44:07.541Z,15.23
2022-10-05T21:47:10.890Z,15.65
2022-10-05T21:50:13.976Z,16.90
2022-10-05T21:53:21.102Z,15.98
2022-10-05T21:56:28.898Z,18.38
2022-10-05T21:59:34.239Z,15.65
2022-10-05T22:02:37.652Z,14.48
2022-10-05T22:05:40.940Z,14.10
2022-10-05T22:08:44.291Z,14.95
2022-10-05T22:11:49.185Z,14.45
2022-10-05T22:14:52.327Z,17.30
2022-10-05T22:17:56.505Z,14.20
2022-10-05T22:20:59.739Z,17.10
2022-10-05T22:24:03.110Z,14.13
2022-10-05T22:27:10.020Z,15.32
2022-10-05T22:30:16.456Z,13.82
2022-10-05T22:33:19.619Z,15.25
2022-10-05T22:36:22.976Z,15.50
2022-10-05T22:39:26.176Z,13.68
2022-10-05T22:42:29.404Z,15.98
2022-10-05T22:45:32.933Z,15.40
2022-10-05T22:48:36.193Z,17.15
2022-10-05T22:51:39.568Z,13.03
2022-10-05T22:54:43.701Z,14.27
2022-10-05T22:57:47.028Z,13.90
2022-10-05T23:00:58.502Z,16.40
2022-10-05T23:04:04.396Z,18.58
2022-10-05T23:07:07.728Z,17.40
2022-10-05T23:10:16.474Z,15.15
2022-10-05T23:13:19.661Z,15.27
2022-10-05T23:16:24.280Z,15.77
2022-10-05T23:19:27.481Z,14.75
2022-10-05T23:22:30.541Z,15.30
2022-10-05T23:25:33.781Z,18.25
2022-10-05T23:28:38.512Z,14.57
2022-10-05T23:31:41.676Z,14.13
2022-10-05T23:34:44.722Z,15.90
2022-10-05T23:37:48.536Z,18.27
2022-10-05T23:40:51.843Z,16.02
2022-10-05T23:43:55.401Z,16.15
2022-10-05T23:46:58.557Z,15.90
2022-10-05T23:50:02.491Z,13.57
2022-10-05T23:53:06.373Z,14.13
2022-10-05T23:56:09.531Z,13.98
2022-10-05T23:59:12.668Z,14.95
